createdAt,value
2017-07-26T00:00:06.928Z,89.7
2017-07-26T00:01:08.650Z,89.8
2017-07-26T00:02:10.350Z,90.4
2017-07-26T00:03:12.037Z,90.2
2017-07-26T00:04:13.769Z,90.4
2017-07-26T00:05:15.464Z,90.4
2017-07-26T00:06:17.148Z,90.4
2017-07-26T00:07:18.844Z,90.4
2017-07-26T00:08:20.525Z,90.6
2017-07-26T00:09:22.207Z,90.5
2017-07-26T00:10:23.894Z,90.6
2017-07-26T00:11:25.583Z,90.4
2017-07-26T00:12:27.309Z,90.8
2017-07-26T00:13:29.009Z,91.0
2017-07-26T00:14:30.699Z,90.9
2017-07-26T00:15:32.403Z,90.9
2017-07-26T00:16:34.091Z,90.5
2017-07-26T00:17:35.774Z,90.8
2017-07-26T00:18:37.487Z,90.8
2017-07-26T00:19:39.169Z,90.9
2017-07-26T00:20:40.875Z,91.3
2017-07-26T00:21:42.644Z,91.2
2017-07-26T00:22:44.333Z,90.9
2017-07-26T00:23:46.046Z,91.5
2017-07-26T00:24:47.741Z,91.6
2017-07-26T00:25:49.445Z,92.0
2017-07-26T00:26:51.146Z,91.6
2017-07-26T00:27:52.866Z,92.0
2017-07-26T00:28:54.569Z,92.0
2017-07-26T00:29:56.261Z,91.5
2017-07-26T00:30:57.961Z,91.3
2017-07-26T00:31:59.784Z,91.2
2017-07-26T00:33:01.509Z,90.5
2017-07-26T00:34:03.207Z,91.0
2017-07-26T00:35:04.896Z,90.9
2017-07-26T00:36:06.601Z,91.2
2017-07-26T00:37:08.329Z,91.6
2017-07-26T00:38:10.048Z,91.6
2017-07-26T00:39:11.778Z,91.5
2017-07-26T00:40:13.469Z,91.5
2017-07-26T00:41:15.200Z,91.3
2017-07-26T00:42:16.899Z,91.2
2017-07-26T00:43:18.695Z,91.2
2017-07-26T00:44:20.390Z,90.9
2017-07-26T00:45:22.093Z,90.9
2017-07-26T00:46:24.066Z,91.2
2017-07-26T00:47:25.732Z,91.1
2017-07-26T00:48:27.427Z,90.9
2017-07-26T00:49:29.243Z,90.9
2017-07-26T00:50:31.006Z,91.0
2017-07-26T00:51:32.704Z,91.0
2017-07-26T00:52:34.391Z,90.9
2017-07-26T00:53:36.090Z,91.0
2017-07-26T00:54:37.786Z,90.9
2017-07-26T00:55:39.478Z,90.9
2017-07-26T00:56:41.191Z,90.9
2017-07-26T00:57:42.888Z,90.9
2017-07-26T00:58:44.565Z,90.9
2017-07-26T00:59:46.251Z,90.8
2017-07-26T01:00:47.935Z,91.2
2017-07-26T01:01:49.641Z,91.2
2017-07-26T01:02:51.375Z,91.4
2017-07-26T01:03:53.056Z,92.0
2017-07-26T01:04:54.750Z,91.8
2017-07-26T01:05:56.445Z,91.9
2017-07-26T01:06:58.137Z,92.0
2017-07-26T01:07:59.832Z,91.8
2017-07-26T01:09:01.549Z,92.0
2017-07-26T01:10:03.232Z,92.0
2017-07-26T01:11:04.916Z,91.4
2017-07-26T01:12:06.611Z,91.8
2017-07-26T01:13:08.320Z,92.2
2017-07-26T01:14:10.013Z,92.1
2017-07-26T01:15:11.749Z,91.4
2017-07-26T01:16:13.437Z,91.5
2017-07-26T01:17:15.132Z,91.5
2017-07-26T01:18:16.820Z,91.6
2017-07-26T01:19:18.516Z,92.0
2017-07-26T01:20:20.210Z,92.0
2017-07-26T01:21:21.903Z,91.8
2017-07-26T01:22:23.608Z,91.5
2017-07-26T01:23:25.300Z,91.8
2017-07-26T01:24:26.981Z,91.6
2017-07-26T01:25:28.666Z,91.9
2017-07-26T01:26:30.383Z,91.7
2017-07-26T01:27:32.083Z,92.0
2017-07-26T01:28:33.807Z,92.0
2017-07-26T01:29:35.494Z,91.9
2017-07-26T01:30:37.215Z,92.0
2017-07-26T01:31:38.912Z,92.1
2017-07-26T01:32:40.597Z,91.6
2017-07-26T01:33:42.313Z,92.0
2017-07-26T01:34:43.999Z,91.5
2017-07-26T01:35:45.694Z,91.2
2017-07-26T01:36:47.413Z,91.1
2017-07-26T01:37:49.118Z,91.5
2017-07-26T01:38:50.841Z,91.3
2017-07-26T01:39:52.534Z,90.9
2017-07-26T01:40:54.250Z,90.8
2017-07-26T01:41:55.932Z,91.0
2017-07-26T01:42:57.620Z,91.2
2017-07-26T01:43:59.325Z,91.1
2017-07-26T01:45:01.012Z,90.9
2017-07-26T01:46:02.706Z,90.9
2017-07-26T01:47:04.405Z,90.8
2017-07-26T01:48:06.109Z,91.0
2017-07-26T01:49:07.816Z,91.0
2017-07-26T01:50:09.508Z,90.9
2017-07-26T01:51:11.236Z,90.7
2017-07-26T01:52:12.961Z,91.2
2017-07-26T01:53:14.651Z,91.0
2017-07-26T01:54:16.350Z,90.8
2017-07-26T01:55:18.038Z,90.4
2017-07-26T01:56:19.741Z,90.9
2017-07-26T01:57:21.487Z,91.0
2017-07-26T01:58:23.179Z,90.5
2017-07-26T01:59:24.873Z,90.9
2017-07-26T02:00:26.553Z,90.6
2017-07-26T02:01:28.248Z,90.9
2017-07-26T02:02:29.942Z,91.0
2017-07-26T02:03:31.681Z,91.1
2017-07-26T02:04:33.370Z,91.3
2017-07-26T02:05:35.075Z,92.0
2017-07-26T02:06:36.772Z,92.1
2017-07-26T02:07:38.464Z,93.0
2017-07-26T02:08:40.169Z,93.9
2017-07-26T02:09:41.903Z,93.9
2017-07-26T02:10:43.591Z,93.4
2017-07-26T02:11:45.284Z,93.2
2017-07-26T02:12:46.971Z,93.2
2017-07-26T02:13:48.652Z,93.2
2017-07-26T02:14:50.340Z,93.2
2017-07-26T02:15:52.053Z,93.4
2017-07-26T02:16:53.747Z,93.7
2017-07-26T02:17:55.442Z,94.1
2017-07-26T02:18:57.172Z,94.5
2017-07-26T02:19:58.865Z,94.7
2017-07-26T02:21:00.552Z,95.4
2017-07-26T02:22:02.236Z,96.9
2017-07-26T02:23:03.930Z,96.4
2017-07-26T02:24:05.628Z,97.1
2017-07-26T02:25:07.324Z,97.5
2017-07-26T02:26:09.008Z,97.3
2017-07-26T02:27:10.707Z,97.7
2017-07-26T02:28:12.403Z,97.5
2017-07-26T02:29:14.100Z,97.0
2017-07-26T02:30:15.806Z,97.0
2017-07-26T02:31:17.494Z,96.7
2017-07-26T02:32:19.186Z,96.0
2017-07-26T02:33:20.893Z,96.0
2017-07-26T02:34:22.592Z,95.5
2017-07-26T02:35:24.292Z,95.8
2017-07-26T02:36:25.986Z,95.7
2017-07-26T02:37:27.686Z,95.5
2017-07-26T02:38:29.371Z,95.3
2017-07-26T02:39:31.064Z,95.8
2017-07-26T02:40:32.743Z,94.9
2017-07-26T02:41:34.432Z,95.3
2017-07-26T02:42:36.118Z,94.6
2017-07-26T02:43:37.808Z,94.6
2017-07-26T02:44:39.501Z,95.1
2017-07-26T02:45:41.199Z,94.5
2017-07-26T02:46:42.904Z,95.1
2017-07-26T02:47:44.580Z,95.0
2017-07-26T02:48:46.294Z,94.5
2017-07-26T02:49:48.002Z,94.4
2017-07-26T02:50:49.718Z,94.1
2017-07-26T02:51:51.445Z,94.9
2017-07-26T02:52:53.128Z,95.2
2017-07-26T02:53:54.842Z,94.9
2017-07-26T02:54:56.570Z,95.0
2017-07-26T02:55:58.299Z,94.6
2017-07-26T02:56:59.998Z,94.7
2017-07-26T02:58:01.747Z,94.2
2017-07-26T02:59:03.466Z,94.9
2017-07-26T03:00:05.176Z,94.2
2017-07-26T03:01:06.886Z,94.3
2017-07-26T03:02:08.589Z,94.1
2017-07-26T03:03:10.293Z,94.3
2017-07-26T03:04:12.116Z,94.5
2017-07-26T03:05:13.846Z,95.0
2017-07-26T03:06:15.535Z,94.8
2017-07-26T03:07:17.229Z,95.2
2017-07-26T03:08:18.924Z,95.5
2017-07-26T03:09:20.621Z,95.5
2017-07-26T03:10:22.371Z,95.5
2017-07-26T03:11:24.082Z,95.7
2017-07-26T03:12:25.774Z,95.7
2017-07-26T03:13:27.485Z,94.9
2017-07-26T03:14:29.295Z,95.1
2017-07-26T03:15:31.022Z,95.0
2017-07-26T03:16:32.740Z,95.0
2017-07-26T03:17:34.439Z,94.9
2017-07-26T03:18:36.137Z,95.0
2017-07-26T03:19:37.835Z,95.1
2017-07-26T03:20:39.529Z,94.9
2017-07-26T03:21:41.263Z,94.6
2017-07-26T03:22:42.953Z,94.9
2017-07-26T03:23:44.641Z,94.6
2017-07-26T03:24:46.336Z,95.0
2017-07-26T03:25:48.032Z,94.6
2017-07-26T03:26:49.718Z,94.6
2017-07-26T03:27:51.508Z,94.8
2017-07-26T03:28:53.220Z,94.8
2017-07-26T03:29:54.910Z,94.5
2017-07-26T03:30:56.606Z,95.0
2017-07-26T03:31:58.337Z,94.3
2017-07-26T03:33:00.026Z,94.3
2017-07-26T03:34:01.728Z,95.0
2017-07-26T03:35:03.417Z,94.9
2017-07-26T03:36:05.102Z,94.8
2017-07-26T03:37:06.781Z,94.9
2017-07-26T03:38:08.481Z,94.5
2017-07-26T03:39:10.191Z,94.7
2017-07-26T03:40:11.911Z,94.9
2017-07-26T03:41:13.595Z,95.2
2017-07-26T03:42:15.301Z,95.6
2017-07-26T03:43:17.008Z,95.5
2017-07-26T03:44:18.791Z,96.0
2017-07-26T03:45:20.479Z,96.1
2017-07-26T03:46:22.189Z,95.8
2017-07-26T03:47:23.880Z,96.1
2017-07-26T03:48:25.621Z,96.2
2017-07-26T03:49:27.336Z,96.1
2017-07-26T03:50:29.011Z,96.5
2017-07-26T03:51:30.736Z,97.0
2017-07-26T03:52:32.417Z,96.8
2017-07-26T03:53:34.104Z,96.6
2017-07-26T03:54:35.788Z,96.7
2017-07-26T03:55:37.484Z,96.6
2017-07-26T03:56:39.169Z,96.0
2017-07-26T03:57:40.865Z,96.5
2017-07-26T03:58:42.548Z,95.7
2017-07-26T03:59:44.246Z,96.5
2017-07-26T04:00:45.944Z,96.7
2017-07-26T04:01:47.639Z,96.4
2017-07-26T04:02:49.329Z,96.5
2017-07-26T04:03:51.037Z,96.8
2017-07-26T04:04:52.716Z,96.8
2017-07-26T04:05:54.400Z,96.6
2017-07-26T04:06:56.094Z,96.8
2017-07-26T04:07:57.784Z,96.6
2017-07-26T04:08:59.476Z,96.3
2017-07-26T04:10:01.845Z,95.6
2017-07-26T04:11:03.525Z,95.6
2017-07-26T04:12:05.212Z,95.8
2017-07-26T04:13:06.901Z,96.2
2017-07-26T04:14:08.596Z,95.7
2017-07-26T04:15:10.270Z,96.1
2017-07-26T04:16:11.961Z,95.8
2017-07-26T04:17:13.647Z,96.1
2017-07-26T04:18:15.355Z,95.7
2017-07-26T04:19:17.038Z,95.8
2017-07-26T04:20:18.718Z,95.5
2017-07-26T04:21:20.418Z,95.3
2017-07-26T04:22:22.112Z,95.3
2017-07-26T04:23:23.812Z,95.5
2017-07-26T04:24:25.518Z,95.7
2017-07-26T04:25:27.186Z,95.8
2017-07-26T04:26:28.870Z,95.5
2017-07-26T04:27:30.577Z,95.8
2017-07-26T04:28:32.263Z,95.5
2017-07-26T04:29:33.966Z,95.6
2017-07-26T04:30:35.654Z,95.8
2017-07-26T04:31:37.342Z,95.9
2017-07-26T04:32:39.042Z,95.8
2017-07-26T04:33:40.722Z,95.1
2017-07-26T04:34:42.428Z,95.1
2017-07-26T04:35:44.118Z,94.7
2017-07-26T04:36:45.790Z,94.9
2017-07-26T04:37:47.471Z,94.8
2017-07-26T04:38:49.162Z,94.3
2017-07-26T04:39:50.835Z,94.7
2017-07-26T04:40:52.523Z,94.5
2017-07-26T04:41:54.207Z,94.6
2017-07-26T04:42:55.892Z,94.2
2017-07-26T04:43:57.570Z,94.5
2017-07-26T04:44:59.261Z,93.8
2017-07-26T04:46:00.947Z,93.7
2017-07-26T04:47:02.641Z,93.6
2017-07-26T04:48:04.319Z,93.7
2017-07-26T04:49:06.010Z,93.5
2017-07-26T04:50:07.708Z,93.8
2017-07-26T04:51:09.403Z,94.0
2017-07-26T04:52:11.100Z,93.6
2017-07-26T04:53:12.814Z,93.6
2017-07-26T04:54:14.510Z,93.6
2017-07-26T04:55:16.204Z,93.7
2017-07-26T04:56:17.900Z,93.6
2017-07-26T04:57:19.587Z,93.9
2017-07-26T04:58:21.287Z,94.1
2017-07-26T04:59:22.981Z,94.6
2017-07-26T05:00:24.691Z,94.2
2017-07-26T05:01:26.379Z,95.3
2017-07-26T05:02:28.057Z,94.6
2017-07-26T05:03:29.743Z,94.5
2017-07-26T05:04:31.361Z,94.5
2017-07-26T05:05:32.980Z,94.4
2017-07-26T05:06:34.615Z,93.6
2017-07-26T05:07:36.253Z,93.7
2017-07-26T05:08:37.885Z,93.5
2017-07-26T05:09:39.527Z,93.3
2017-07-26T05:10:41.216Z,93.8
2017-07-26T05:11:42.827Z,93.1
2017-07-26T05:12:44.469Z,93.1
2017-07-26T05:13:46.102Z,93.0
2017-07-26T05:14:47.736Z,94.7
2017-07-26T05:15:49.380Z,96.1
2017-07-26T05:16:51.010Z,97.1
2017-07-26T05:17:52.721Z,97.3
2017-07-26T05:18:54.412Z,98.3
2017-07-26T05:19:56.109Z,98.3
2017-07-26T05:20:57.792Z,99.1
2017-07-26T05:21:59.470Z,98.7
2017-07-26T05:23:01.167Z,99.2
2017-07-26T05:24:02.868Z,99.8
2017-07-26T05:25:04.572Z,99.3
2017-07-26T05:26:06.256Z,99.1
2017-07-26T05:27:07.953Z,99.8
2017-07-26T05:28:09.642Z,99.3
2017-07-26T05:29:11.319Z,99.0
2017-07-26T05:30:13.012Z,98.9
2017-07-26T05:31:14.698Z,99.1
2017-07-26T05:32:16.393Z,98.5
2017-07-26T05:33:18.078Z,98.2
2017-07-26T05:34:19.775Z,98.5
2017-07-26T05:35:21.487Z,97.6
2017-07-26T05:36:23.233Z,97.4
2017-07-26T05:37:24.934Z,97.3
2017-07-26T05:38:26.637Z,97.5
2017-07-26T05:39:28.342Z,97.6
2017-07-26T05:40:30.049Z,97.4
2017-07-26T05:41:31.752Z,96.9
2017-07-26T05:42:33.443Z,97.0
2017-07-26T05:43:35.151Z,96.8
2017-07-26T05:44:36.837Z,97.0
2017-07-26T05:45:38.518Z,97.0
2017-07-26T05:46:40.158Z,96.7
2017-07-26T05:47:41.831Z,96.5
2017-07-26T05:48:43.562Z,96.0
2017-07-26T05:49:45.241Z,95.7
2017-07-26T05:50:46.949Z,95.6
2017-07-26T05:51:48.634Z,96.2
2017-07-26T05:52:50.326Z,96.1
2017-07-26T05:53:51.999Z,96.0
2017-07-26T05:54:53.704Z,95.3
2017-07-26T05:55:55.402Z,95.4
2017-07-26T05:56:57.092Z,95.0
2017-07-26T05:57:58.782Z,95.2
2017-07-26T05:59:00.467Z,95.0
2017-07-26T06:00:02.162Z,94.8
2017-07-26T06:01:03.804Z,94.9
2017-07-26T06:02:05.490Z,94.2
2017-07-26T06:03:07.182Z,94.6
2017-07-26T06:04:08.887Z,94.2
2017-07-26T06:05:10.587Z,93.7
2017-07-26T06:06:12.283Z,93.7
2017-07-26T06:07:14.750Z,94.4
2017-07-26T06:08:16.452Z,94.4
2017-07-26T06:09:18.134Z,94.8
2017-07-26T06:10:19.890Z,94.8
2017-07-26T06:11:21.572Z,94.5
2017-07-26T06:12:23.266Z,95.1
2017-07-26T06:13:24.968Z,95.3
2017-07-26T06:14:26.669Z,95.5
2017-07-26T06:15:28.376Z,95.7
2017-07-26T06:16:30.074Z,95.6
2017-07-26T06:17:31.766Z,95.7
2017-07-26T06:18:33.462Z,95.2
2017-07-26T06:19:35.149Z,95.4
2017-07-26T06:20:36.857Z,95.5
2017-07-26T06:21:38.547Z,95.5
2017-07-26T06:22:40.236Z,95.6
2017-07-26T06:23:41.929Z,95.7
2017-07-26T06:24:43.616Z,95.6
2017-07-26T06:25:45.301Z,95.6
2017-07-26T06:26:46.983Z,95.6
2017-07-26T06:27:48.662Z,95.2
2017-07-26T06:28:50.362Z,94.8
2017-07-26T06:29:52.061Z,94.7
2017-07-26T06:30:53.762Z,94.9
2017-07-26T06:31:55.453Z,94.4
2017-07-26T06:32:57.154Z,93.5
2017-07-26T06:33:58.845Z,94.0
2017-07-26T06:35:00.561Z,94.0
2017-07-26T06:36:02.258Z,94.5
2017-07-26T06:37:03.945Z,94.9
2017-07-26T06:38:05.620Z,94.6
2017-07-26T06:39:07.307Z,94.7
2017-07-26T06:40:09.008Z,95.3
2017-07-26T06:41:10.710Z,95.5
2017-07-26T06:42:12.394Z,95.3
2017-07-26T06:43:14.101Z,95.7
2017-07-26T06:44:15.792Z,95.5
2017-07-26T06:45:17.487Z,95.5
2017-07-26T06:46:19.187Z,95.6
2017-07-26T06:47:20.895Z,95.7
2017-07-26T06:48:22.586Z,95.6
2017-07-26T06:49:24.290Z,95.9
2017-07-26T06:50:25.978Z,95.8
2017-07-26T06:51:27.680Z,95.9
2017-07-26T06:52:29.365Z,95.6
2017-07-26T06:53:31.068Z,94.9
2017-07-26T06:54:32.765Z,95.5
2017-07-26T06:55:34.455Z,95.0
2017-07-26T06:56:36.150Z,95.5
2017-07-26T06:57:37.849Z,94.9
2017-07-26T06:58:39.534Z,94.7
2017-07-26T06:59:41.258Z,94.5
2017-07-26T07:00:42.928Z,95.1
2017-07-26T07:01:44.643Z,94.5
2017-07-26T07:02:46.339Z,94.9
2017-07-26T07:03:48.020Z,94.6
2017-07-26T07:04:49.717Z,94.6
2017-07-26T07:05:51.412Z,94.5
2017-07-26T07:06:53.111Z,94.8
2017-07-26T07:07:54.811Z,94.9
2017-07-26T07:08:56.518Z,94.8
2017-07-26T07:09:58.203Z,94.8
2017-07-26T07:10:59.902Z,94.7
2017-07-26T07:12:01.609Z,94.4
2017-07-26T07:13:03.315Z,94.8
2017-07-26T07:14:05.021Z,93.5
2017-07-26T07:15:06.708Z,93.9
2017-07-26T07:16:08.400Z,93.9
2017-07-26T07:17:10.110Z,93.6
2017-07-26T07:18:11.819Z,93.8
2017-07-26T07:19:13.665Z,93.1
2017-07-26T07:20:15.362Z,92.2
2017-07-26T07:21:17.063Z,92.3
2017-07-26T07:22:18.755Z,91.7
2017-07-26T07:23:20.464Z,91.5
2017-07-26T07:24:22.213Z,92.0
2017-07-26T07:25:23.919Z,91.9
2017-07-26T07:26:25.612Z,92.0
2017-07-26T07:27:27.302Z,91.7
2017-07-26T07:28:28.992Z,91.8
2017-07-26T07:29:30.687Z,92.0
2017-07-26T07:30:32.394Z,91.9
2017-07-26T07:31:34.088Z,92.0
2017-07-26T07:32:35.792Z,91.8
2017-07-26T07:33:37.472Z,91.7
2017-07-26T07:34:39.169Z,91.2
2017-07-26T07:35:40.879Z,91.2
2017-07-26T07:36:42.591Z,91.0
2017-07-26T07:37:44.290Z,90.9
2017-07-26T07:38:45.997Z,90.3
2017-07-26T07:39:47.871Z,90.9
2017-07-26T07:40:49.855Z,90.9
2017-07-26T07:41:51.523Z,91.1
2017-07-26T07:42:53.228Z,90.5
2017-07-26T07:43:54.921Z,89.9
2017-07-26T07:44:56.620Z,89.7
2017-07-26T07:45:58.313Z,90.0
2017-07-26T07:47:00.006Z,89.4
2017-07-26T07:48:01.686Z,89.3
2017-07-26T07:49:03.388Z,88.7
2017-07-26T07:50:05.088Z,88.9
2017-07-26T07:51:06.800Z,89.1
2017-07-26T07:52:08.561Z,89.2
2017-07-26T07:53:10.248Z,88.7
2017-07-26T07:54:11.931Z,88.4
2017-07-26T07:55:13.632Z,89.1
2017-07-26T07:56:15.327Z,88.4
2017-07-26T07:57:17.016Z,88.7
2017-07-26T07:58:18.707Z,88.3
2017-07-26T07:59:20.411Z,88.4
2017-07-26T08:00:22.115Z,88.3
2017-07-26T08:01:23.794Z,88.4
2017-07-26T08:02:25.510Z,88.7
2017-07-26T08:03:27.195Z,88.2
2017-07-26T08:04:28.891Z,87.6
2017-07-26T08:05:30.574Z,87.5
2017-07-26T08:06:32.273Z,88.4
2017-07-26T08:07:33.969Z,87.8
2017-07-26T08:08:35.662Z,87.1
2017-07-26T08:09:37.357Z,87.2
2017-07-26T08:10:39.047Z,88.0
2017-07-26T08:11:40.758Z,86.7
2017-07-26T08:12:42.447Z,87.1
2017-07-26T08:13:44.151Z,87.9
2017-07-26T08:14:45.858Z,87.9
2017-07-26T08:15:47.542Z,88.3
2017-07-26T08:16:49.234Z,87.8
2017-07-26T08:17:50.922Z,88.2
2017-07-26T08:18:52.621Z,87.8
2017-07-26T08:19:54.332Z,87.1
2017-07-26T08:20:56.037Z,87.2
2017-07-26T08:21:57.720Z,87.3
2017-07-26T08:22:59.432Z,88.5
2017-07-26T08:24:01.115Z,88.8
2017-07-26T08:25:02.808Z,87.4
2017-07-26T08:26:04.506Z,87.1
2017-07-26T08:27:06.213Z,86.4
2017-07-26T08:28:07.894Z,85.6
2017-07-26T08:29:09.571Z,85.2
2017-07-26T08:30:11.282Z,84.8
2017-07-26T08:31:12.979Z,85.4
2017-07-26T08:32:14.671Z,84.9
2017-07-26T08:33:16.369Z,84.8
2017-07-26T08:34:18.072Z,84.9
2017-07-26T08:35:19.756Z,84.6
2017-07-26T08:36:21.458Z,84.0
2017-07-26T08:37:23.148Z,84.1
2017-07-26T08:38:24.847Z,84.1
2017-07-26T08:39:26.543Z,83.9
2017-07-26T08:40:28.242Z,83.4
2017-07-26T08:41:29.931Z,82.6
2017-07-26T08:42:31.625Z,84.1
2017-07-26T08:43:33.305Z,84.1
2017-07-26T08:44:34.983Z,84.3
2017-07-26T08:45:36.704Z,84.9
2017-07-26T08:46:38.391Z,85.4
2017-07-26T08:47:40.083Z,84.6
2017-07-26T08:48:41.771Z,85.1
2017-07-26T08:49:43.463Z,85.0
2017-07-26T08:50:45.150Z,85.0
2017-07-26T08:51:46.834Z,84.1
2017-07-26T08:52:48.537Z,84.1
2017-07-26T08:53:50.220Z,84.3
2017-07-26T08:54:51.929Z,84.4
2017-07-26T08:55:53.624Z,84.7
2017-07-26T08:56:55.311Z,84.2
2017-07-26T08:57:56.999Z,84.0
2017-07-26T08:58:58.694Z,84.1
2017-07-26T09:00:00.412Z,83.4
2017-07-26T09:01:02.094Z,83.2
2017-07-26T09:02:03.802Z,83.1
2017-07-26T09:03:05.513Z,83.4
2017-07-26T09:04:07.213Z,83.0
2017-07-26T09:05:08.909Z,83.3
2017-07-26T09:06:10.590Z,82.9
2017-07-26T09:07:12.292Z,83.7
2017-07-26T09:08:13.990Z,83.3
2017-07-26T09:09:15.678Z,83.1
2017-07-26T09:10:17.402Z,83.2
2017-07-26T09:11:19.084Z,83.2
2017-07-26T09:12:20.787Z,83.3
2017-07-26T09:13:22.514Z,82.7
2017-07-26T09:14:24.231Z,82.0
2017-07-26T09:15:25.923Z,80.9
2017-07-26T09:16:27.622Z,81.4
2017-07-26T09:17:29.326Z,81.2
2017-07-26T09:18:31.023Z,81.0
2017-07-26T09:19:32.713Z,80.5
2017-07-26T09:20:34.450Z,79.9
2017-07-26T09:21:36.145Z,79.9
2017-07-26T09:22:37.845Z,80.0
2017-07-26T09:23:39.519Z,80.0
2017-07-26T09:24:41.236Z,79.1
2017-07-26T09:25:42.927Z,79.7
2017-07-26T09:26:44.635Z,79.2
2017-07-26T09:27:46.332Z,79.2
2017-07-26T09:28:48.015Z,80.0
2017-07-26T09:29:49.702Z,79.6
2017-07-26T09:30:51.392Z,78.7
2017-07-26T09:31:53.083Z,78.5
2017-07-26T09:32:54.767Z,79.0
2017-07-26T09:33:56.470Z,79.3
2017-07-26T09:34:58.157Z,78.2
2017-07-26T09:35:59.874Z,78.0
2017-07-26T09:37:01.576Z,78.1
2017-07-26T09:38:03.267Z,78.4
2017-07-26T09:39:04.962Z,78.8
2017-07-26T09:40:06.669Z,78.1
2017-07-26T09:41:08.373Z,77.6
2017-07-26T09:42:10.071Z,77.8
2017-07-26T09:43:11.796Z,77.9
2017-07-26T09:44:13.549Z,77.5
2017-07-26T09:45:15.241Z,77.6
2017-07-26T09:46:16.961Z,78.0
2017-07-26T09:47:18.667Z,78.6
2017-07-26T09:48:20.363Z,78.8
2017-07-26T09:49:22.061Z,78.9
2017-07-26T09:50:23.738Z,78.8
2017-07-26T09:51:25.445Z,78.8
2017-07-26T09:52:27.158Z,77.4
2017-07-26T09:53:28.867Z,77.1
2017-07-26T09:54:30.559Z,78.3
2017-07-26T09:55:32.242Z,77.4
2017-07-26T09:56:33.945Z,77.1
2017-07-26T09:57:35.648Z,76.8
2017-07-26T09:58:37.343Z,76.8
2017-07-26T09:59:39.038Z,77.2
2017-07-26T10:00:40.729Z,76.3
2017-07-26T10:01:42.430Z,77.1
2017-07-26T10:02:44.127Z,77.2
2017-07-26T10:03:45.833Z,77.1
2017-07-26T10:04:47.527Z,75.9
2017-07-26T10:05:49.234Z,76.0
2017-07-26T10:06:50.933Z,76.6
2017-07-26T10:07:52.618Z,77.3
2017-07-26T10:08:54.389Z,76.7
2017-07-26T10:09:56.075Z,76.9
2017-07-26T10:10:57.783Z,77.1
2017-07-26T10:11:59.475Z,77.1
2017-07-26T10:13:01.198Z,76.6
2017-07-26T10:14:02.894Z,77.0
2017-07-26T10:15:04.591Z,77.2
2017-07-26T10:16:06.271Z,76.3
2017-07-26T10:17:07.956Z,75.4
2017-07-26T10:18:09.644Z,75.6
2017-07-26T10:19:11.336Z,76.2
2017-07-26T10:20:13.050Z,75.4
2017-07-26T10:21:14.750Z,75.6
2017-07-26T10:22:16.444Z,75.9
2017-07-26T10:23:18.149Z,74.8
2017-07-26T10:24:19.845Z,75.6
2017-07-26T10:25:21.540Z,76.5
2017-07-26T10:26:23.237Z,76.1
2017-07-26T10:27:24.933Z,76.1
2017-07-26T10:28:26.625Z,74.7
2017-07-26T10:29:28.336Z,74.3
2017-07-26T10:30:30.020Z,73.8
2017-07-26T10:31:31.736Z,74.2
2017-07-26T10:32:33.438Z,74.4
2017-07-26T10:33:35.144Z,74.0
2017-07-26T10:34:36.832Z,73.5
2017-07-26T10:35:38.544Z,73.2
2017-07-26T10:36:40.220Z,73.5
2017-07-26T10:37:41.924Z,73.4
2017-07-26T10:38:43.615Z,73.8
2017-07-26T10:39:45.309Z,73.4
2017-07-26T10:40:46.998Z,72.5
2017-07-26T10:41:48.697Z,73.0
2017-07-26T10:42:50.411Z,73.5
2017-07-26T10:43:52.102Z,73.2
2017-07-26T10:44:53.799Z,73.6
2017-07-26T10:45:55.490Z,72.7
2017-07-26T10:46:57.180Z,72.3
2017-07-26T10:47:58.886Z,72.1
2017-07-26T10:49:00.576Z,72.9
2017-07-26T10:50:02.272Z,72.3
2017-07-26T10:51:03.968Z,72.3
2017-07-26T10:52:05.650Z,72.8
2017-07-26T10:53:07.338Z,72.4
2017-07-26T10:54:09.033Z,72.7
2017-07-26T10:55:10.728Z,71.7
2017-07-26T10:56:12.430Z,71.5
2017-07-26T10:57:14.121Z,71.2
2017-07-26T10:58:15.818Z,71.5
2017-07-26T10:59:17.498Z,72.9
2017-07-26T11:00:19.194Z,72.4
2017-07-26T11:01:20.904Z,72.7
2017-07-26T11:02:22.609Z,72.3
2017-07-26T11:03:24.324Z,71.8
2017-07-26T11:04:26.007Z,71.6
2017-07-26T11:05:27.704Z,72.4
2017-07-26T11:06:29.429Z,71.5
2017-07-26T11:07:31.125Z,72.3
2017-07-26T11:08:32.837Z,72.6
2017-07-26T11:09:34.525Z,73.4
2017-07-26T11:10:36.227Z,74.2
2017-07-26T11:11:37.927Z,72.9
2017-07-26T11:12:39.631Z,71.7
2017-07-26T11:13:41.357Z,71.9
2017-07-26T11:14:43.015Z,71.8
2017-07-26T11:15:44.697Z,71.9
2017-07-26T11:16:46.387Z,71.9
2017-07-26T11:17:48.070Z,72.4
2017-07-26T11:18:49.749Z,72.3
2017-07-26T11:19:51.441Z,71.8
2017-07-26T11:20:53.141Z,71.8
2017-07-26T11:21:54.832Z,72.4
2017-07-26T11:22:56.586Z,72.2
2017-07-26T11:23:58.288Z,71.7
2017-07-26T11:24:59.976Z,70.9
2017-07-26T11:26:01.682Z,70.2
2017-07-26T11:27:03.377Z,70.6
2017-07-26T11:28:05.064Z,70.7
2017-07-26T11:29:06.761Z,71.2
2017-07-26T11:30:08.455Z,70.4
2017-07-26T11:31:10.130Z,70.0
2017-07-26T11:32:11.818Z,69.7
2017-07-26T11:33:13.511Z,69.4
2017-07-26T11:34:15.199Z,70.9
2017-07-26T11:35:16.897Z,70.7
2017-07-26T11:36:18.599Z,70.3
2017-07-26T11:37:20.294Z,69.7
2017-07-26T11:38:22.002Z,69.7
2017-07-26T11:39:23.700Z,70.1
2017-07-26T11:40:25.393Z,70.3
2017-07-26T11:41:27.983Z,69.5
2017-07-26T11:42:29.667Z,69.6
2017-07-26T11:43:31.355Z,70.0
2017-07-26T11:44:33.051Z,70.4
2017-07-26T11:45:34.761Z,69.4
2017-07-26T11:46:36.461Z,69.8
2017-07-26T11:47:38.156Z,69.5
2017-07-26T11:48:39.856Z,69.8
2017-07-26T11:49:41.552Z,69.6
2017-07-26T11:50:43.236Z,69.5
2017-07-26T11:51:44.942Z,69.4
2017-07-26T11:52:46.632Z,69.1
2017-07-26T11:53:48.323Z,70.8
2017-07-26T11:54:50.035Z,70.3
2017-07-26T11:55:51.726Z,70.1
2017-07-26T11:56:53.435Z,70.4
2017-07-26T11:57:55.133Z,70.9
2017-07-26T11:58:56.828Z,71.8
2017-07-26T11:59:58.534Z,70.4
2017-07-26T12:01:00.217Z,69.0
2017-07-26T12:02:01.932Z,70.5
2017-07-26T12:03:03.624Z,71.2
2017-07-26T12:04:05.335Z,70.9
2017-07-26T12:05:07.027Z,69.4
2017-07-26T12:06:08.714Z,70.6
2017-07-26T12:07:10.425Z,70.1
2017-07-26T12:08:12.120Z,70.1
2017-07-26T12:09:13.918Z,69.7
2017-07-26T12:10:15.601Z,69.8
2017-07-26T12:11:17.282Z,70.2
2017-07-26T12:12:18.980Z,69.2
2017-07-26T12:13:20.742Z,69.8
2017-07-26T12:14:23.206Z,69.5
2017-07-26T12:15:24.908Z,70.4
2017-07-26T12:16:26.607Z,69.3
2017-07-26T12:17:28.305Z,70.4
2017-07-26T12:18:30.042Z,70.3
2017-07-26T12:19:31.800Z,71.3
2017-07-26T12:20:33.501Z,70.7
2017-07-26T12:21:35.212Z,69.1
2017-07-26T12:22:36.950Z,69.0
2017-07-26T12:23:38.643Z,70.0
2017-07-26T12:24:40.367Z,70.0
2017-07-26T12:25:42.106Z,70.5
2017-07-26T12:26:43.845Z,70.0
2017-07-26T12:27:45.616Z,70.0
2017-07-26T12:28:47.324Z,70.4
2017-07-26T12:29:49.029Z,71.1
2017-07-26T12:30:50.732Z,70.7
2017-07-26T12:31:52.496Z,69.6
2017-07-26T12:32:54.233Z,69.4
2017-07-26T12:33:55.955Z,70.0
2017-07-26T12:34:57.666Z,69.5
2017-07-26T12:35:59.485Z,70.5
2017-07-26T12:37:01.180Z,68.2
2017-07-26T12:38:02.906Z,69.0
2017-07-26T12:39:04.621Z,69.0
2017-07-26T12:40:06.343Z,69.5
2017-07-26T12:41:08.060Z,68.6
2017-07-26T12:42:09.884Z,68.8
2017-07-26T12:43:11.764Z,68.5
2017-07-26T12:44:13.461Z,68.0
2017-07-26T12:45:15.183Z,66.7
2017-07-26T12:46:16.884Z,66.6
2017-07-26T12:47:18.626Z,67.3
2017-07-26T12:48:20.352Z,67.1
2017-07-26T12:49:22.090Z,66.7
2017-07-26T12:50:23.811Z,66.6
2017-07-26T12:51:25.525Z,65.4
2017-07-26T12:52:27.241Z,65.2
2017-07-26T12:53:28.942Z,64.9
2017-07-26T12:54:30.659Z,63.9
2017-07-26T12:55:32.365Z,64.4
2017-07-26T12:56:34.090Z,65.6
2017-07-26T12:57:35.795Z,64.6
2017-07-26T12:58:37.507Z,64.5
2017-07-26T12:59:39.246Z,64.3
2017-07-26T13:00:40.949Z,64.2
2017-07-26T13:01:42.644Z,64.3
2017-07-26T13:02:44.364Z,63.9
2017-07-26T13:03:46.061Z,64.4
2017-07-26T13:04:47.839Z,65.3
2017-07-26T13:05:49.562Z,64.3
2017-07-26T13:06:51.275Z,63.4
2017-07-26T13:07:52.989Z,63.8
2017-07-26T13:08:54.710Z,64.2
2017-07-26T13:09:56.412Z,63.9
2017-07-26T13:10:58.119Z,64.0
2017-07-26T13:11:59.835Z,64.2
2017-07-26T13:13:01.557Z,65.0
2017-07-26T13:14:03.272Z,65.3
2017-07-26T13:15:04.976Z,66.2
2017-07-26T13:16:06.691Z,65.9
2017-07-26T13:17:08.396Z,64.8
2017-07-26T13:18:10.087Z,64.5
2017-07-26T13:19:11.795Z,64.9
2017-07-26T13:20:13.511Z,65.6
2017-07-26T13:21:15.234Z,64.2
2017-07-26T13:22:16.944Z,65.2
2017-07-26T13:23:18.673Z,65.2
2017-07-26T13:24:20.402Z,64.5
2017-07-26T13:25:22.154Z,64.6
2017-07-26T13:26:23.869Z,63.3
2017-07-26T13:27:25.572Z,62.4
2017-07-26T13:28:27.284Z,62.3
2017-07-26T13:29:28.998Z,63.3
2017-07-26T13:30:30.711Z,63.6
2017-07-26T13:31:32.412Z,62.9
2017-07-26T13:32:34.145Z,63.1
2017-07-26T13:33:35.865Z,62.9
2017-07-26T13:34:37.597Z,62.1
2017-07-26T13:35:39.294Z,64.4
2017-07-26T13:36:41.005Z,64.1
2017-07-26T13:37:42.717Z,63.8
2017-07-26T13:38:44.439Z,63.2
2017-07-26T13:39:46.144Z,63.1
2017-07-26T13:40:47.824Z,62.9